Time;durP1;ratioP1;P1;durP2;ratioP2;P2;SDS_P1;SDS_P2;PMS_P1;PMS_P2;Temp;Humidity;BMP_temperature;BMP_pressure;BME280_temperature;BME280_humidity;BME280_pressure;Samples;Min_cycle;Max_cycle;Signal;HPM_P1;HPM_P2
2022/08/02 00:01:30;;;;;;;2.63;1.70;;;;;;;;;;5077753;28;20032;-69
2022/08/02 00:04:16;;;;;;;5.28;1.65;;;;;;;;;;5077004;28;20455;-70
2022/08/02 00:07:01;;;;;;;4.97;2.20;;;;;;;;;;5086245;28;20463;-70
2022/08/02 00:09:47;;;;;;;3.38;1.98;;;;;;;;;;5077879;28;20015;-70
2022/08/02 00:12:32;;;;;;;3.28;1.70;;;;;;;;;;5082309;28;20012;-70
2022/08/02 00:15:18;;;;;;;2.80;1.80;;;;;;;;;;5087501;28;20032;-69
2022/08/02 00:18:03;;;;;;;3.75;2.22;;;;;;;;;;5086683;28;20061;-70
2022/08/02 00:20:49;;;;;;;4.78;2.25;;;;;;;;;;5090927;28;20034;-60
2022/08/02 00:23:35;;;;;;;4.95;2.33;;;;;;;;;;5089125;28;20051;-65
2022/08/02 00:26:20;;;;;;;2.97;1.80;;;;;;;;;;5084922;28;20016;-63
2022/08/02 00:29:06;;;;;;;2.60;1.80;;;;;;;;;;5088503;28;20565;-63
2022/08/02 00:31:51;;;;;;;3.78;2.00;;;;;;;;;;5093504;28;20481;-62
2022/08/02 00:34:37;;;;;;;3.20;1.58;;;;;;;;;;5092118;28;20046;-63
2022/08/02 00:37:22;;;;;;;6.57;1.80;;;;;;;;;;5090016;28;20024;-71
2022/08/02 00:40:09;;;;;;;3.83;2.20;;;;;;;;;;5086108;28;20189;-69
2022/08/02 00:43:03;;;;;;;2.20;1.90;;;;;;;;;;5090800;28;20089;-69
2022/08/02 00:45:48;;;;;;;3.10;1.90;;;;;;;;;;5083208;28;20020;-70
2022/08/02 00:48:34;;;;;;;3.33;2.15;;;;;;;;;;5081095;28;20382;-69
2022/08/02 00:51:19;;;;;;;4.30;2.35;;;;;;;;;;5060222;28;20543;-70
2022/08/02 00:54:05;;;;;;;2.45;2.08;;;;;;;;;;5068008;28;20066;-71
2022/08/02 00:56:51;;;;;;;2.80;1.85;;;;;;;;;;5066350;28;20095;-71
2022/08/02 00:59:36;;;;;;;3.13;2.20;;;;;;;;;;5055917;28;20017;-65
2022/08/02 01:02:22;;;;;;;2.72;2.05;;;;;;;;;;5066795;28;20036;-65
2022/08/02 01:05:08;;;;;;;5.40;2.25;;;;;;;;;;5061331;28;20592;-64
2022/08/02 01:07:53;;;;;;;7.10;2.05;;;;;;;;;;5070335;28;20082;-66
2022/08/02 01:10:39;;;;;;;3.22;1.75;;;;;;;;;;5072868;28;20052;-65
2022/08/02 01:13:26;;;;;;;4.32;3.00;;;;;;;;;;5073108;28;20021;-63
2022/08/02 01:16:14;;;;;;;2.92;1.98;;;;;;;;;;5066328;28;20035;-63
2022/08/02 01:19:06;;;;;;;4.18;1.95;;;;;;;;;;5067868;28;20144;-65
2022/08/02 01:22:10;;;;;;;2.28;1.75;;;;;;;;;;5060240;28;20028;-65
2022/08/02 01:25:15;;;;;;;3.20;2.10;;;;;;;;;;5072530;28;20031;-63
2022/08/02 01:28:00;;;;;;;4.82;2.10;;;;;;;;;;5062734;28;20468;-66
2022/08/02 01:30:46;;;;;;;3.85;2.25;;;;;;;;;;5066387;28;20025;-65
2022/08/02 01:33:35;;;;;;;2.78;2.40;;;;;;;;;;5064961;28;20059;-65
2022/08/02 01:36:22;;;;;;;3.20;2.10;;;;;;;;;;5073348;28;20032;-62
2022/08/02 01:39:10;;;;;;;3.08;1.73;;;;;;;;;;5067924;28;20023;-65
2022/08/02 01:41:56;;;;;;;5.05;2.00;;;;;;;;;;5064086;28;20121;-68
2022/08/02 01:44:42;;;;;;;4.10;1.80;;;;;;;;;;5067430;28;20100;-64
2022/08/02 01:47:30;;;;;;;4.10;2.03;;;;;;;;;;5072429;28;20056;-65
2022/08/02 01:50:17;;;;;;;4.03;1.92;;;;;;;;;;5082176;28;20566;-65
2022/08/02 01:53:05;;;;;;;2.85;1.58;;;;;;;;;;5082217;28;20471;-71
2022/08/02 01:55:51;;;;;;;4.72;2.08;;;;;;;;;;5076317;28;20130;-65
2022/08/02 01:58:38;;;;;;;2.70;2.20;;;;;;;;;;5093389;28;20020;-65
2022/08/02 02:01:24;;;;;;;6.50;2.38;;;;;;;;;;5080252;28;20031;-63
2022/08/02 02:04:10;;;;;;;2.85;1.73;;;;;;;;;;5089259;28;20020;-64
2022/08/02 02:06:56;;;;;;;3.58;2.40;;;;;;;;;;5093346;28;20407;-65
2022/08/02 02:09:43;;;;;;;2.15;1.70;;;;;;;;;;5088858;28;20026;-61
2022/08/02 02:12:30;;;;;;;3.45;1.90;;;;;;;;;;5079625;28;20027;-61
2022/08/02 02:15:16;;;;;;;3.05;1.92;;;;;;;;;;5084682;28;20044;-61
2022/08/02 02:18:02;;;;;;;3.58;2.03;;;;;;;;;;5091165;28;20020;-61
2022/08/02 02:20:48;;;;;;;2.30;1.65;;;;;;;;;;5087964;28;20067;-62
2022/08/02 02:23:33;;;;;;;5.47;1.73;;;;;;;;;;5085912;28;20035;-62
2022/08/02 02:26:19;;;;;;;3.50;2.08;;;;;;;;;;5087789;28;20032;-61
2022/08/02 02:29:07;;;;;;;2.70;2.08;;;;;;;;;;5089575;28;20024;-62
2022/08/02 02:31:54;;;;;;;6.32;2.75;;;;;;;;;;5085175;28;20025;-64
2022/08/02 02:34:41;;;;;;;3.05;2.13;;;;;;;;;;5084596;28;20043;-65
2022/08/02 02:37:27;;;;;;;3.70;2.15;;;;;;;;;;5088320;28;20024;-65
2022/08/02 02:40:13;;;;;;;3.00;1.75;;;;;;;;;;5091111;28;20024;-66
2022/08/02 02:43:00;;;;;;;2.95;2.00;;;;;;;;;;5088745;28;20234;-64
2022/08/02 02:45:46;;;;;;;4.20;2.58;;;;;;;;;;5072810;28;20051;-65
2022/08/02 02:48:32;;;;;;;6.38;2.00;;;;;;;;;;5090593;28;20119;-72
2022/08/02 02:51:18;;;;;;;2.55;1.80;;;;;;;;;;5079064;28;20058;-60
2022/08/02 02:54:04;;;;;;;4.15;1.83;;;;;;;;;;5084093;28;20027;-60
2022/08/02 02:56:50;;;;;;;3.30;2.13;;;;;;;;;;5071533;28;20136;-62
2022/08/02 02:59:37;;;;;;;3.28;1.80;;;;;;;;;;5081330;28;20023;-61
2022/08/02 03:02:23;;;;;;;4.72;2.50;;;;;;;;;;5072882;28;20391;-61
2022/08/02 03:05:09;;;;;;;2.42;2.00;;;;;;;;;;5072688;28;20020;-62
2022/08/02 03:07:54;;;;;;;2.60;1.88;;;;;;;;;;5084910;28;20076;-62
2022/08/02 03:10:42;;;;;;;2.15;1.90;;;;;;;;;;5089240;28;20106;-62
2022/08/02 03:13:28;;;;;;;4.97;2.15;;;;;;;;;;5084417;28;20115;-67
2022/08/02 03:16:13;;;;;;;3.15;1.70;;;;;;;;;;5092103;28;20036;-62
2022/08/02 03:19:01;;;;;;;2.60;1.80;;;;;;;;;;5087821;28;20031;-62
2022/08/02 03:21:48;;;;;;;3.28;1.85;;;;;;;;;;5071127;28;20036;-62
2022/08/02 03:24:33;;;;;;;3.67;2.38;;;;;;;;;;5080696;28;20078;-61
2022/08/02 03:27:19;;;;;;;2.25;1.90;;;;;;;;;;5089178;28;20028;-60
2022/08/02 03:30:05;;;;;;;2.20;1.60;;;;;;;;;;5094824;28;20027;-61
2022/08/02 03:32:51;;;;;;;3.20;2.00;;;;;;;;;;5091235;28;20394;-61
2022/08/02 03:35:37;;;;;;;5.63;2.30;;;;;;;;;;5091154;28;20036;-62
2022/08/02 03:38:24;;;;;;;4.90;1.95;;;;;;;;;;5088720;28;20402;-60
2022/08/02 03:41:10;;;;;;;3.40;2.05;;;;;;;;;;5080559;28;20106;-63
2022/08/02 03:43:56;;;;;;;5.88;2.25;;;;;;;;;;5078090;28;20051;-63
2022/08/02 03:46:42;;;;;;;3.95;2.00;;;;;;;;;;5091362;28;20024;-64
2022/08/02 03:49:30;;;;;;;3.28;1.65;;;;;;;;;;5079828;28;20098;-66
2022/08/02 03:52:16;;;;;;;5.32;2.30;;;;;;;;;;5092261;28;20395;-63
2022/08/02 03:55:02;;;;;;;2.42;2.00;;;;;;;;;;5080209;28;20040;-65
2022/08/02 03:57:47;;;;;;;1.95;1.63;;;;;;;;;;5084964;28;20468;-65
2022/08/02 04:00:33;;;;;;;2.20;1.88;;;;;;;;;;5085717;28;20028;-63
2022/08/02 04:03:19;;;;;;;3.10;1.98;;;;;;;;;;5083332;28;20103;-63
2022/08/02 04:06:04;;;;;;;1.95;1.73;;;;;;;;;;5076564;28;20031;-62
2022/08/02 04:08:51;;;;;;;4.28;2.00;;;;;;;;;;5098189;28;20497;-63
2022/08/02 04:11:37;;;;;;;2.10;1.67;;;;;;;;;;5071613;28;20051;-62
2022/08/02 04:14:23;;;;;;;3.28;1.65;;;;;;;;;;5087313;28;20051;-62
2022/08/02 04:17:10;;;;;;;4.53;2.10;;;;;;;;;;5087217;28;20029;-62
2022/08/02 04:19:59;;;;;;;3.28;1.90;;;;;;;;;;5083572;28;20023;-64
2022/08/02 04:22:51;;;;;;;5.20;2.00;;;;;;;;;;5074875;28;20024;-65
2022/08/02 04:25:37;;;;;;;3.78;2.17;;;;;;;;;;5077804;28;20020;-63
2022/08/02 04:28:23;;;;;;;3.60;2.25;;;;;;;;;;5076514;28;20028;-65
2022/08/02 04:31:09;;;;;;;3.45;1.92;;;;;;;;;;5095728;28;20114;-65
2022/08/02 04:33:55;;;;;;;2.30;1.75;;;;;;;;;;5072193;28;20067;-65
2022/08/02 04:36:40;;;;;;;2.88;1.77;;;;;;;;;;5083553;28;20423;-58
2022/08/02 04:39:26;;;;;;;3.70;2.08;;;;;;;;;;5088868;28;20020;-65
2022/08/02 04:42:18;;;;;;;4.13;2.20;;;;;;;;;;5085062;28;20082;-60
2022/08/02 04:45:05;;;;;;;2.85;1.90;;;;;;;;;;5085031;28;20123;-60
2022/08/02 04:47:50;;;;;;;2.92;1.55;;;;;;;;;;5084281;28;20024;-64
2022/08/02 04:50:36;;;;;;;4.53;1.77;;;;;;;;;;5090992;28;20044;-61
2022/08/02 04:53:21;;;;;;;3.97;2.05;;;;;;;;;;5088391;28;20110;-60
2022/08/02 04:56:07;;;;;;;3.20;1.90;;;;;;;;;;5079349;28;20068;-65
2022/08/02 04:58:52;;;;;;;6.85;2.20;;;;;;;;;;5062811;28;20475;-65
2022/08/02 05:01:38;;;;;;;3.50;2.17;;;;;;;;;;5088182;28;20023;-64
2022/08/02 05:04:23;;;;;;;6.93;1.90;;;;;;;;;;5084651;28;20153;-63
2022/08/02 05:07:09;;;;;;;3.75;2.50;;;;;;;;;;5078725;28;20034;-65
2022/08/02 05:09:54;;;;;;;5.40;1.92;;;;;;;;;;5084842;28;20093;-65
2022/08/02 05:12:40;;;;;;;2.65;1.88;;;;;;;;;;5068422;28;20016;-64
2022/08/02 05:15:26;;;;;;;6.00;2.25;;;;;;;;;;5079375;28;20031;-59
2022/08/02 05:18:11;;;;;;;4.50;1.92;;;;;;;;;;5086476;28;20028;-71
2022/08/02 05:20:57;;;;;;;3.90;2.30;;;;;;;;;;5082086;28;20032;-70
2022/08/02 05:23:43;;;;;;;2.45;1.95;;;;;;;;;;5086511;28;20070;-70
2022/08/02 05:26:28;;;;;;;2.45;2.08;;;;;;;;;;5085662;28;20048;-71
2022/08/02 05:29:14;;;;;;;3.25;2.10;;;;;;;;;;5091565;28;20026;-71
2022/08/02 05:32:00;;;;;;;3.40;2.22;;;;;;;;;;5086802;28;20028;-64
2022/08/02 05:34:45;;;;;;;3.88;2.00;;;;;;;;;;5090995;28;20447;-61
2022/08/02 05:37:31;;;;;;;5.07;2.10;;;;;;;;;;5085073;28;20047;-62
2022/08/02 05:40:17;;;;;;;2.20;2.00;;;;;;;;;;5076401;28;20024;-62
2022/08/02 05:43:10;;;;;;;3.65;2.33;;;;;;;;;;5087250;28;20020;-71
2022/08/02 05:45:55;;;;;;;3.25;2.40;;;;;;;;;;5091959;28;20028;-71
2022/08/02 05:48:42;;;;;;;3.03;1.60;;;;;;;;;;5084536;28;20107;-71
2022/08/02 05:51:31;;;;;;;3.60;1.70;;;;;;;;;;5057797;28;20049;-75
2022/08/02 05:54:18;;;;;;;4.03;1.85;;;;;;;;;;5087476;28;20424;-74
2022/08/02 05:57:05;;;;;;;3.08;2.00;;;;;;;;;;5071579;28;20448;-75
2022/08/02 06:00:11;;;;;;;2.65;1.70;;;;;;;;;;5080879;28;20391;-74
2022/08/02 06:03:00;;;;;;;3.90;2.22;;;;;;;;;;5074953;28;20060;-75
2022/08/02 06:06:03;;;;;;;4.93;2.40;;;;;;;;;;5088486;28;20073;-76
2022/08/02 06:08:50;;;;;;;4.80;2.50;;;;;;;;;;5088699;28;20278;-74
2022/08/02 06:11:37;;;;;;;6.07;2.65;;;;;;;;;;5077626;28;20017;-77
2022/08/02 06:14:23;;;;;;;9.25;2.63;;;;;;;;;;5081955;28;20024;-78
2022/08/02 06:17:12;;;;;;;3.90;2.22;;;;;;;;;;5078925;28;20024;-77
2022/08/02 06:19:59;;;;;;;4.60;2.35;;;;;;;;;;5066720;28;20461;-76
2022/08/02 06:22:44;;;;;;;3.63;2.05;;;;;;;;;;5066628;28;20086;-78
2022/08/02 06:25:31;;;;;;;4.85;1.98;;;;;;;;;;5092518;28;20482;-76
2022/08/02 06:28:17;;;;;;;3.50;1.90;;;;;;;;;;5069605;28;20027;-73
2022/08/02 06:31:04;;;;;;;2.08;1.85;;;;;;;;;;5092396;28;20406;-76
2022/08/02 06:33:50;;;;;;;2.80;2.20;;;;;;;;;;5093598;28;20024;-76
2022/08/02 06:36:37;;;;;;;6.43;2.47;;;;;;;;;;5089969;28;20099;-76
2022/08/02 06:39:27;;;;;;;2.13;1.83;;;;;;;;;;5096823;28;20042;-77
2022/08/02 06:42:14;;;;;;;4.30;1.90;;;;;;;;;;5087709;28;20505;-76
2022/08/02 06:45:00;;;;;;;2.58;2.00;;;;;;;;;;5080954;28;20028;-76
2022/08/02 06:47:45;;;;;;;5.93;2.30;;;;;;;;;;5086441;28;20030;-78
2022/08/02 06:50:31;;;;;;;3.28;2.05;;;;;;;;;;5092188;28;20052;-76
2022/08/02 06:53:17;;;;;;;5.15;2.17;;;;;;;;;;5072003;28;20021;-76
2022/08/02 06:56:02;;;;;;;4.50;2.38;;;;;;;;;;5089143;28;20444;-76
2022/08/02 06:58:48;;;;;;;3.63;2.20;;;;;;;;;;5078940;28;20028;-75
2022/08/02 07:01:34;;;;;;;4.05;2.28;;;;;;;;;;5083568;28;20108;-77
2022/08/02 07:04:19;;;;;;;6.28;2.38;;;;;;;;;;5089846;28;20024;-74
2022/08/02 07:07:05;;;;;;;3.25;2.35;;;;;;;;;;5081519;28;20502;-77
2022/08/02 07:09:51;;;;;;;3.72;2.25;;;;;;;;;;5075779;28;20107;-76
2022/08/02 07:12:36;;;;;;;3.58;2.47;;;;;;;;;;5071840;28;20035;-78
2022/08/02 07:15:22;;;;;;;7.07;2.50;;;;;;;;;;5079300;28;20136;-75
2022/08/02 07:18:13;;;;;;;4.85;2.38;;;;;;;;;;5092335;28;20023;-77
2022/08/02 07:20:59;;;;;;;5.10;2.67;;;;;;;;;;5072469;28;20043;-77
2022/08/02 07:23:44;;;;;;;3.83;2.80;;;;;;;;;;5099969;28;20016;-76
2022/08/02 07:26:30;;;;;;;3.50;2.30;;;;;;;;;;5077548;28;20340;-77
2022/08/02 07:29:16;;;;;;;3.55;2.42;;;;;;;;;;5081969;28;20050;-75
2022/08/02 07:32:01;;;;;;;5.40;3.58;;;;;;;;;;5097824;28;20030;-78
2022/08/02 07:34:47;;;;;;;5.80;3.15;;;;;;;;;;5065148;28;20028;-77
2022/08/02 07:37:33;;;;;;;3.75;2.90;;;;;;;;;;5090636;28;20111;-77
2022/08/02 07:40:19;;;;;;;4.35;2.50;;;;;;;;;;5091579;28;20043;-74
2022/08/02 07:43:05;;;;;;;4.75;2.80;;;;;;;;;;5082745;28;20023;-75
2022/08/02 07:45:50;;;;;;;5.50;2.80;;;;;;;;;;5091519;28;20540;-76
2022/08/02 07:48:36;;;;;;;4.53;2.65;;;;;;;;;;5076568;28;20016;-75
2022/08/02 07:51:22;;;;;;;5.45;2.67;;;;;;;;;;5092403;28;20058;-77
2022/08/02 07:54:07;;;;;;;3.50;2.70;;;;;;;;;;5077162;28;20008;-74
2022/08/02 07:56:53;;;;;;;3.67;2.50;;;;;;;;;;5075763;28;20087;-77
2022/08/02 07:59:38;;;;;;;5.50;2.55;;;;;;;;;;5086297;28;20019;-72
2022/08/02 08:02:24;;;;;;;5.40;3.00;;;;;;;;;;5080530;28;20027;-78
2022/08/02 08:05:10;;;;;;;4.72;2.85;;;;;;;;;;5092470;28;20141;-78
2022/08/02 08:07:56;;;;;;;3.20;2.42;;;;;;;;;;5071724;28;20024;-78
2022/08/02 08:10:42;;;;;;;4.88;3.30;;;;;;;;;;5072210;28;20461;-78
2022/08/02 08:13:27;;;;;;;6.35;2.38;;;;;;;;;;5090166;28;20028;-78
2022/08/02 08:16:13;;;;;;;5.32;2.65;;;;;;;;;;5090024;28;20514;-78
2022/08/02 08:18:58;;;;;;;6.07;3.17;;;;;;;;;;5090816;28;20012;-77
2022/08/02 08:21:44;;;;;;;6.25;2.97;;;;;;;;;;5077584;28;20022;-77
2022/08/02 08:24:29;;;;;;;4.22;2.42;;;;;;;;;;5090379;28;20136;-79
2022/08/02 08:27:16;;;;;;;5.30;3.00;;;;;;;;;;5088343;28;20035;-77
2022/08/02 08:30:02;;;;;;;6.72;2.90;;;;;;;;;;5079093;28;20100;-78
2022/08/02 08:32:48;;;;;;;5.45;3.20;;;;;;;;;;5073285;28;20039;-76
2022/08/02 08:35:34;;;;;;;3.90;2.80;;;;;;;;;;5087040;28;20497;-76
2022/08/02 08:38:20;;;;;;;4.25;2.85;;;;;;;;;;5086505;28;20024;-77
2022/08/02 08:41:05;;;;;;;5.25;2.85;;;;;;;;;;5094908;28;20027;-73
2022/08/02 08:43:51;;;;;;;5.47;2.38;;;;;;;;;;5093729;28;20012;-72
2022/08/02 08:46:36;;;;;;;5.70;2.30;;;;;;;;;;5076862;28;20484;-73
2022/08/02 08:49:30;;;;;;;4.93;2.78;;;;;;;;;;5064477;28;20040;-73
2022/08/02 08:52:18;;;;;;;3.22;2.70;;;;;;;;;;5078565;28;20016;-76
2022/08/02 08:55:05;;;;;;;4.82;2.85;;;;;;;;;;5084205;28;20051;-71
2022/08/02 08:57:53;;;;;;;7.20;2.63;;;;;;;;;;5079627;28;20109;-70
2022/08/02 09:00:40;;;;;;;6.82;2.88;;;;;;;;;;5076701;28;20364;-71
2022/08/02 09:03:25;;;;;;;6.85;3.20;;;;;;;;;;5089794;28;20020;-73
2022/08/02 09:06:11;;;;;;;3.53;2.60;;;;;;;;;;5083785;28;20016;-71
2022/08/02 09:08:56;;;;;;;2.88;2.60;;;;;;;;;;5059110;28;20475;-72
2022/08/02 09:11:42;;;;;;;6.03;2.78;;;;;;;;;;5081074;28;20040;-73
2022/08/02 09:14:28;;;;;;;5.60;3.47;;;;;;;;;;5056495;28;20111;-76
2022/08/02 09:17:14;;;;;;;7.03;3.08;;;;;;;;;;5073177;28;20020;-77
2022/08/02 09:20:06;;;;;;;4.53;2.58;;;;;;;;;;5090257;28;20502;-76
2022/08/02 09:23:08;;;;;;;4.72;3.08;;;;;;;;;;5075881;28;20116;-77
2022/08/02 09:25:55;;;;;;;6.10;2.80;;;;;;;;;;5076396;28;20510;-78
2022/08/02 09:28:42;;;;;;;4.57;2.85;;;;;;;;;;5065445;28;20081;-77
2022/08/02 09:31:28;;;;;;;2.35;2.15;;;;;;;;;;5081704;28;20045;-75
2022/08/02 09:34:13;;;;;;;4.88;2.75;;;;;;;;;;5077248;28;20027;-71
2022/08/02 09:36:59;;;;;;;5.80;2.60;;;;;;;;;;5075363;28;20046;-74
2022/08/02 09:39:44;;;;;;;4.57;2.53;;;;;;;;;;5087940;28;20012;-72
2022/08/02 09:42:30;;;;;;;3.40;2.53;;;;;;;;;;5078081;28;20479;-73
2022/08/02 09:45:15;;;;;;;5.32;3.22;;;;;;;;;;5079965;28;20107;-74
2022/08/02 09:48:02;;;;;;;5.53;3.13;;;;;;;;;;5086103;28;20024;-73
2022/08/02 09:50:47;;;;;;;4.35;3.15;;;;;;;;;;5078289;28;20063;-83
2022/08/02 09:53:33;;;;;;;7.40;3.30;;;;;;;;;;5074391;28;20086;-74
2022/08/02 09:56:19;;;;;;;4.47;2.92;;;;;;;;;;5094836;28;20619;-74
2022/08/02 09:59:06;;;;;;;5.75;2.90;;;;;;;;;;5090429;28;20479;-75
2022/08/02 10:01:53;;;;;;;7.20;3.50;;;;;;;;;;5073872;28;20028;-74
2022/08/02 10:04:38;;;;;;;5.82;3.67;;;;;;;;;;5060788;28;20475;-75
2022/08/02 10:07:24;;;;;;;4.65;2.90;;;;;;;;;;5090019;28;20028;-75
2022/08/02 10:10:09;;;;;;;6.35;4.20;;;;;;;;;;5084004;28;20028;-75
2022/08/02 10:12:55;;;;;;;5.20;3.22;;;;;;;;;;5069919;28;20020;-77
2022/08/02 10:15:41;;;;;;;7.38;3.65;;;;;;;;;;5089656;28;20032;-77
2022/08/02 10:18:27;;;;;;;8.63;3.47;;;;;;;;;;5087677;28;20016;-77
2022/08/02 10:21:32;;;;;;;5.60;3.20;;;;;;;;;;5061295;28;20454;-77
2022/08/02 10:24:20;;;;;;;3.78;2.83;;;;;;;;;;5097258;28;20090;-77
2022/08/02 10:27:12;;;;;;;4.90;3.30;;;;;;;;;;5083676;28;20129;-75
2022/08/02 10:29:59;;;;;;;4.35;2.83;;;;;;;;;;5068824;28;20020;-72
2022/08/02 10:32:45;;;;;;;4.78;2.80;;;;;;;;;;5094346;28;20065;-72
2022/08/02 10:35:32;;;;;;;4.57;3.17;;;;;;;;;;5097268;28;20050;-73
2022/08/02 10:38:18;;;;;;;4.95;3.42;;;;;;;;;;5077950;28;20410;-71
2022/08/02 10:41:04;;;;;;;4.32;3.13;;;;;;;;;;5087927;28;20028;-71
2022/08/02 10:43:49;;;;;;;6.07;3.15;;;;;;;;;;5072861;28;20016;-71
2022/08/02 10:46:35;;;;;;;4.05;2.97;;;;;;;;;;5097408;28;20388;-77
2022/08/02 10:49:21;;;;;;;4.30;3.40;;;;;;;;;;5080167;28;20402;-70
2022/08/02 10:52:08;;;;;;;6.07;2.83;;;;;;;;;;5077026;28;20089;-70
2022/08/02 10:54:55;;;;;;;6.78;2.83;;;;;;;;;;5093676;28;20028;-71
2022/08/02 10:57:41;;;;;;;4.22;2.95;;;;;;;;;;5088382;28;20396;-70
2022/08/02 11:00:26;;;;;;;5.00;2.92;;;;;;;;;;5087612;28;20024;-71
2022/08/02 11:03:27;;;;;;;4.13;3.00;;;;;;;;;;5078411;28;20074;-77
2022/08/02 11:06:13;;;;;;;5.03;3.13;;;;;;;;;;5072611;28;20166;-75
2022/08/02 11:09:18;;;;;;;3.72;2.50;;;;;;;;;;5071853;28;20031;-77
2022/08/02 11:12:07;;;;;;;3.83;2.67;;;;;;;;;;5094450;28;20026;-76
2022/08/02 11:15:02;;;;;;;6.20;2.80;;;;;;;;;;5077952;28;20475;-76
2022/08/02 11:17:52;;;;;;;3.55;2.75;;;;;;;;;;5073462;28;20031;-77
2022/08/02 11:20:37;;;;;;;5.57;3.97;;;;;;;;;;5088566;28;20028;-76
2022/08/02 11:23:32;;;;;;;4.03;3.20;;;;;;;;;;5077310;28;20016;-75
2022/08/02 11:26:30;;;;;;;3.50;2.67;;;;;;;;;;5073192;28;20485;-74
2022/08/02 11:29:15;;;;;;;5.05;3.20;;;;;;;;;;5092043;28;20495;-75
2022/08/02 11:32:01;;;;;;;3.42;2.72;;;;;;;;;;5092139;28;20027;-74
2022/08/02 11:34:48;;;;;;;4.68;3.15;;;;;;;;;;5080068;28;20038;-76
2022/08/02 11:37:38;;;;;;;4.63;2.80;;;;;;;;;;5078120;28;20020;-75
2022/08/02 11:40:35;;;;;;;5.97;3.00;;;;;;;;;;5079975;28;20025;-77
2022/08/02 11:45:52;;;;;;;6.18;3.28;;;;;;;;;;5031831;28;20056;-76
2022/08/02 11:48:39;;;;;;;4.13;3.40;;;;;;;;;;5031709;28;20454;-76
2022/08/02 11:51:24;;;;;;;5.07;2.90;;;;;;;;;;5018818;28;20384;-76
2022/08/02 11:54:10;;;;;;;5.38;3.10;;;;;;;;;;5032827;28;20128;-76
2022/08/02 11:57:12;;;;;;;8.00;2.88;;;;;;;;;;5037488;28;20098;-76
2022/08/02 11:59:57;;;;;;;3.75;2.67;;;;;;;;;;5044076;28;20023;-67
2022/08/02 12:02:47;;;;;;;6.05;2.92;;;;;;;;;;5046340;28;20108;-77
2022/08/02 12:05:32;;;;;;;6.18;2.60;;;;;;;;;;5051231;28;20395;-76
2022/08/02 12:08:21;;;;;;;5.22;2.67;;;;;;;;;;5052180;28;20021;-78
2022/08/02 12:11:06;;;;;;;10.05;3.45;;;;;;;;;;5052364;28;20056;-77
2022/08/02 12:13:52;;;;;;;4.38;3.17;;;;;;;;;;5052594;28;20476;-76
2022/08/02 12:19:42;;;;;;;4.95;2.80;;;;;;;;;;5046088;28;20013;-70
2022/08/02 12:22:28;;;;;;;3.90;2.90;;;;;;;;;;5031656;28;20022;-76
2022/08/02 12:25:15;;;;;;;5.72;3.10;;;;;;;;;;5039581;28;20017;-78
2022/08/02 12:28:21;;;;;;;5.25;3.28;;;;;;;;;;5050880;28;20532;-78
2022/08/02 12:31:12;;;;;;;4.38;2.97;;;;;;;;;;5045294;28;20020;-77
2022/08/02 12:33:58;;;;;;;6.53;2.97;;;;;;;;;;5046497;28;20067;-76
2022/08/02 12:36:56;;;;;;;5.65;3.30;;;;;;;;;;5050406;28;20429;-78
2022/08/02 12:39:43;;;;;;;5.32;3.80;;;;;;;;;;5046825;28;20044;-71
2022/08/02 12:42:44;;;;;;;4.20;3.08;;;;;;;;;;5045560;28;20029;-68
2022/08/02 12:45:31;;;;;;;5.53;3.55;;;;;;;;;;5046665;28;20056;-70
2022/08/02 12:48:29;;;;;;;4.15;3.25;;;;;;;;;;5049574;28;20020;-69
2022/08/02 12:51:22;;;;;;;3.40;2.78;;;;;;;;;;5039703;28;20024;-70
2022/08/02 12:54:12;;;;;;;9.00;3.55;;;;;;;;;;5049206;28;20057;-69
2022/08/02 12:57:09;;;;;;;4.32;3.00;;;;;;;;;;5038328;28;20029;-71
2022/08/02 12:59:54;;;;;;;4.55;3.72;;;;;;;;;;5043420;28;20111;-70
2022/08/02 13:02:40;;;;;;;4.22;3.13;;;;;;;;;;5051126;28;20081;-71
2022/08/02 13:05:27;;;;;;;4.45;3.20;;;;;;;;;;5055251;28;20211;-71
2022/08/02 13:08:14;;;;;;;5.78;3.47;;;;;;;;;;5045789;28;20096;-71
2022/08/02 13:10:59;;;;;;;5.82;3.30;;;;;;;;;;5042373;28;20017;-71
2022/08/02 13:13:45;;;;;;;5.80;3.00;;;;;;;;;;5054443;28;20017;-78
2022/08/02 13:16:31;;;;;;;5.25;2.80;;;;;;;;;;5051075;28;20037;-66
2022/08/02 13:19:17;;;;;;;6.57;3.10;;;;;;;;;;5038109;28;20024;-67
2022/08/02 13:22:03;;;;;;;5.00;2.95;;;;;;;;;;5051024;28;20036;-67
2022/08/02 13:24:50;;;;;;;4.68;3.08;;;;;;;;;;5051976;28;20021;-67
2022/08/02 13:27:36;;;;;;;7.60;3.50;;;;;;;;;;5035791;28;20071;-67
2022/08/02 13:30:22;;;;;;;5.15;2.78;;;;;;;;;;5048125;28;20028;-72
2022/08/02 13:33:07;;;;;;;4.03;3.13;;;;;;;;;;5051877;28;20063;-76
2022/08/02 13:35:53;;;;;;;3.83;2.95;;;;;;;;;;5050234;28;20033;-74
2022/08/02 13:38:39;;;;;;;5.82;2.83;;;;;;;;;;5035950;28;20019;-75
2022/08/02 13:41:24;;;;;;;5.07;2.97;;;;;;;;;;5049929;28;20393;-74
2022/08/02 13:44:10;;;;;;;3.58;2.75;;;;;;;;;;5047976;28;20049;-74
2022/08/02 13:46:55;;;;;;;4.63;3.10;;;;;;;;;;5048354;28;20025;-74
2022/08/02 13:49:41;;;;;;;4.20;2.80;;;;;;;;;;5038951;28;20091;-71
2022/08/02 13:52:26;;;;;;;3.55;2.80;;;;;;;;;;5053961;28;20025;-71
2022/08/02 13:55:12;;;;;;;5.38;2.78;;;;;;;;;;5055348;28;20029;-69
2022/08/02 13:57:58;;;;;;;3.90;2.88;;;;;;;;;;5054233;28;20025;-70
2022/08/02 14:00:43;;;;;;;3.72;2.63;;;;;;;;;;5051671;28;20616;-70
2022/08/02 14:03:29;;;;;;;5.55;2.97;;;;;;;;;;5054390;28;20053;-70
2022/08/02 14:06:15;;;;;;;3.40;2.60;;;;;;;;;;5052071;28;20024;-70
2022/08/02 14:09:01;;;;;;;7.00;3.95;;;;;;;;;;5053349;28;20074;-68
2022/08/02 14:11:47;;;;;;;5.63;3.42;;;;;;;;;;5054314;28;20055;-78
2022/08/02 14:14:32;;;;;;;6.78;2.30;;;;;;;;;;5043401;28;20033;-78
2022/08/02 14:17:18;;;;;;;6.25;2.85;;;;;;;;;;5035009;28;20146;-77
2022/08/02 14:20:04;;;;;;;3.17;2.20;;;;;;;;;;5053217;28;20100;-78
2022/08/02 14:22:49;;;;;;;4.22;2.42;;;;;;;;;;5039954;28;20017;-78
2022/08/02 14:25:35;;;;;;;3.92;2.13;;;;;;;;;;5052927;28;20100;-77
2022/08/02 14:28:21;;;;;;;5.75;2.70;;;;;;;;;;5054272;28;20025;-67
2022/08/02 14:31:06;;;;;;;2.45;1.92;;;;;;;;;;5051241;28;20486;-70
2022/08/02 14:33:52;;;;;;;4.07;2.28;;;;;;;;;;5051802;28;20028;-71
2022/08/02 14:36:38;;;;;;;3.72;2.55;;;;;;;;;;5054289;28;20032;-71
2022/08/02 14:39:23;;;;;;;5.85;2.33;;;;;;;;;;5039261;28;20024;-70
2022/08/02 14:42:09;;;;;;;2.28;2.00;;;;;;;;;;5050768;28;20037;-70
2022/08/02 14:44:55;;;;;;;2.25;2.05;;;;;;;;;;5039524;28;20053;-71
2022/08/02 14:47:41;;;;;;;2.30;2.10;;;;;;;;;;5063805;23;20078;-67
2022/08/02 14:50:26;;;;;;;3.40;2.08;;;;;;;;;;5042565;28;20452;-67
2022/08/02 14:53:12;;;;;;;5.68;2.45;;;;;;;;;;5062468;28;20017;-67
2022/08/02 14:55:57;;;;;;;3.17;2.60;;;;;;;;;;5047079;28;20125;-66
2022/08/02 14:58:43;;;;;;;5.80;2.72;;;;;;;;;;5056617;28;20017;-67
2022/08/02 15:01:30;;;;;;;4.47;2.45;;;;;;;;;;5051701;28;20021;-65
2022/08/02 15:04:15;;;;;;;6.18;2.30;;;;;;;;;;5053198;28;20074;-69
2022/08/02 15:07:01;;;;;;;4.68;3.03;;;;;;;;;;5053370;28;20017;-66
2022/08/02 15:09:47;;;;;;;4.00;2.45;;;;;;;;;;5053293;28;20025;-66
2022/08/02 15:12:32;;;;;;;2.60;2.40;;;;;;;;;;5053371;28;20017;-66
2022/08/02 15:15:18;;;;;;;2.67;2.13;;;;;;;;;;5050772;28;20423;-66
2022/08/02 15:18:04;;;;;;;3.33;2.03;;;;;;;;;;5039424;28;20017;-67
2022/08/02 15:20:49;;;;;;;6.10;2.50;;;;;;;;;;5052393;28;20052;-67
2022/08/02 15:23:36;;;;;;;4.43;2.90;;;;;;;;;;5047916;28;20178;-70
2022/08/02 15:26:21;;;;;;;3.60;2.63;;;;;;;;;;5050169;28;20503;-71
2022/08/02 15:29:07;;;;;;;5.53;2.58;;;;;;;;;;5048521;28;20067;-71
2022/08/02 15:31:52;;;;;;;2.17;1.98;;;;;;;;;;5049547;28;20487;-71
2022/08/02 15:34:38;;;;;;;3.08;1.70;;;;;;;;;;5037481;28;20036;-71
2022/08/02 15:37:24;;;;;;;2.20;2.00;;;;;;;;;;5051396;28;20071;-71
2022/08/02 15:40:10;;;;;;;2.63;1.80;;;;;;;;;;5056982;28;20056;-62
2022/08/02 15:42:56;;;;;;;5.35;2.13;;;;;;;;;;5050067;28;20074;-71
2022/08/02 15:45:41;;;;;;;4.65;2.28;;;;;;;;;;5033897;28;20025;-70
2022/08/02 15:48:27;;;;;;;4.03;2.40;;;;;;;;;;5046070;28;20633;-71
2022/08/02 15:51:13;;;;;;;5.45;2.78;;;;;;;;;;5045329;28;20025;-71
2022/08/02 15:53:58;;;;;;;6.05;2.60;;;;;;;;;;5050399;28;20024;-73
2022/08/02 15:56:44;;;;;;;3.63;2.50;;;;;;;;;;5042914;28;20491;-73
2022/08/02 15:59:30;;;;;;;7.47;2.75;;;;;;;;;;5048253;28;20459;-61
2022/08/02 16:02:17;;;;;;;4.07;2.47;;;;;;;;;;5052306;28;20064;-71
2022/08/02 16:05:03;;;;;;;9.60;2.55;;;;;;;;;;5056265;28;20021;-70
2022/08/02 16:07:48;;;;;;;5.05;3.08;;;;;;;;;;5050822;28;20041;-69
2022/08/02 16:10:34;;;;;;;5.68;2.60;;;;;;;;;;5049266;28;20657;-71
2022/08/02 16:16:31;;;;;;;3.25;2.47;;;;;;;;;;5045183;28;20112;-61
2022/08/02 16:19:17;;;;;;;3.75;2.60;;;;;;;;;;5048489;28;20407;-69
2022/08/02 16:22:02;;;;;;;6.03;2.38;;;;;;;;;;5033645;28;20033;-66
2022/08/02 16:24:49;;;;;;;2.92;2.05;;;;;;;;;;5048587;28;20121;-68
2022/08/02 16:27:34;;;;;;;4.95;2.53;;;;;;;;;;5048965;28;20029;-66
2022/08/02 16:30:20;;;;;;;3.40;2.35;;;;;;;;;;5050450;28;20017;-65
2022/08/02 16:33:06;;;;;;;5.50;2.50;;;;;;;;;;5039109;28;20029;-67
2022/08/02 16:35:52;;;;;;;5.97;2.60;;;;;;;;;;5050395;28;20036;-70
2022/08/02 16:38:38;;;;;;;2.95;2.03;;;;;;;;;;5050538;28;20024;-61
2022/08/02 16:41:24;;;;;;;4.03;2.25;;;;;;;;;;5050595;28;20044;-63
2022/08/02 16:44:09;;;;;;;4.10;2.45;;;;;;;;;;5044761;28;20021;-62
2022/08/02 16:46:55;;;;;;;2.10;1.85;;;;;;;;;;5048272;28;20025;-63
2022/08/02 16:49:40;;;;;;;4.93;2.45;;;;;;;;;;5049132;28;20072;-63